Time;durP1;ratioP1;P1;durP2;ratioP2;P2;SDS_P1;SDS_P2;PMS_P1;PMS_P2;Temp;Humidity;BMP_temperature;BMP_pressure;BME280_temperature;BME280_humidity;BME280_pressure;Samples;Min_cycle;Max_cycle;Signal;HPM_P1;HPM_P2
2022/07/18 00:00:31;;;;;;;8.93;5.18;;;17.00;99.90;;;;;;5090218;28;20397;-68
2022/07/18 00:02:57;;;;;;;8.93;4.75;;;16.90;99.90;;;;;;5113846;28;20028;-67
2022/07/18 00:05:22;;;;;;;10.68;5.18;;;16.90;99.90;;;;;;5105652;28;20036;-68
2022/07/18 00:07:48;;;;;;;10.02;4.65;;;16.90;99.90;;;;;;5091367;28;20043;-68
2022/07/18 00:10:13;;;;;;;12.10;4.95;;;16.90;99.90;;;;;;5091505;28;20089;-68
2022/07/18 00:12:39;;;;;;;12.52;4.85;;;16.80;99.90;;;;;;5089821;28;20055;-69
2022/07/18 00:15:05;;;;;;;10.25;4.80;;;16.80;99.90;;;;;;5091400;28;20042;-68
2022/07/18 00:17:31;;;;;;;8.07;4.57;;;16.80;99.90;;;;;;5091058;28;20390;-68
2022/07/18 00:19:56;;;;;;;8.27;4.40;;;16.80;99.90;;;;;;5089779;28;20047;-68
2022/07/18 00:22:22;;;;;;;6.68;4.60;;;16.70;99.90;;;;;;5089209;28;20127;-67
2022/07/18 00:24:48;;;;;;;7.05;4.68;;;16.70;99.90;;;;;;5090781;28;20565;-68
2022/07/18 00:27:13;;;;;;;7.30;4.63;;;16.70;99.90;;;;;;5090967;28;20119;-68
2022/07/18 00:29:39;;;;;;;8.48;4.75;;;16.70;99.90;;;;;;5089393;28;20047;-67
2022/07/18 00:32:06;;;;;;;7.57;4.47;;;16.70;99.90;;;;;;5090895;28;20128;-68
2022/07/18 00:34:32;;;;;;;10.18;5.05;;;16.60;99.90;;;;;;5088963;28;20123;-68
2022/07/18 00:36:58;;;;;;;8.52;5.07;;;16.60;99.90;;;;;;5090653;28;20115;-69
2022/07/18 00:39:24;;;;;;;7.10;4.82;;;16.50;99.90;;;;;;5090861;28;20085;-68
2022/07/18 00:41:50;;;;;;;9.57;4.88;;;16.50;99.90;;;;;;5090732;28;20058;-69
2022/07/18 00:44:21;;;;;;;9.18;5.22;;;16.50;99.90;;;;;;5090224;28;20119;-68
2022/07/18 00:46:49;;;;;;;8.95;5.03;;;16.50;99.90;;;;;;5090616;28;20235;-67
2022/07/18 00:49:15;;;;;;;8.00;4.72;;;16.50;99.90;;;;;;5090287;28;20503;-68
2022/07/18 00:51:41;;;;;;;14.75;5.22;;;16.50;99.90;;;;;;5090668;28;20044;-68
2022/07/18 00:54:06;;;;;;;10.75;5.72;;;16.40;99.90;;;;;;5088946;28;20483;-68
2022/07/18 00:56:32;;;;;;;9.68;5.50;;;16.40;99.90;;;;;;5088979;28;20072;-68
2022/07/18 00:58:58;;;;;;;10.63;5.82;;;16.40;99.90;;;;;;5090373;28;20545;-68
2022/07/18 01:04:09;;;;;;;12.48;6.60;;;16.50;99.90;;;;;;5090258;28;20036;-68
2022/07/18 01:06:35;;;;;;;11.25;5.82;;;16.40;99.90;;;;;;5090428;28;20040;-68
2022/07/18 01:09:01;;;;;;;9.63;6.32;;;16.20;99.90;;;;;;5091656;28;20096;-68
2022/07/18 01:11:27;;;;;;;11.10;6.30;;;16.10;99.90;;;;;;5115619;28;20024;-66
2022/07/18 01:13:53;;;;;;;10.65;6.80;;;16.30;99.90;;;;;;5102867;28;20032;-68
2022/07/18 01:16:19;;;;;;;10.20;6.63;;;16.30;99.90;;;;;;5090373;28;20514;-68
2022/07/18 01:18:49;;;;;;;14.68;7.35;;;16.30;99.90;;;;;;5090572;28;20120;-68
2022/07/18 01:21:16;;;;;;;16.33;6.82;;;16.30;99.90;;;;;;5090479;28;20040;-69
2022/07/18 01:23:42;;;;;;;14.57;7.30;;;16.20;99.90;;;;;;5090437;28;20130;-68
2022/07/18 01:26:08;;;;;;;10.27;7.00;;;16.30;99.90;;;;;;5090308;28;20081;-68
2022/07/18 01:28:35;;;;;;;13.05;7.20;;;16.30;99.90;;;;;;5090337;28;20373;-67
2022/07/18 01:31:02;;;;;;;11.13;6.82;;;16.20;99.90;;;;;;5088829;28;20392;-68
2022/07/18 01:33:30;;;;;;;11.38;7.13;;;16.20;99.90;;;;;;5088324;28;20072;-68
2022/07/18 01:35:59;;;;;;;11.68;6.55;;;16.10;99.90;;;;;;5090198;28;20059;-67
2022/07/18 01:38:24;;;;;;;12.52;7.13;;;16.10;99.90;;;;;;5090390;28;20039;-68
2022/07/18 01:40:50;;;;;;;13.43;7.05;;;16.00;99.90;;;;;;5088638;28;20040;-67
2022/07/18 01:43:15;;;;;;;10.65;6.75;;;16.00;99.90;;;;;;5089589;28;20036;-68
2022/07/18 01:45:41;;;;;;;11.43;6.45;;;16.00;99.90;;;;;;5089891;28;20040;-68
2022/07/18 01:48:07;;;;;;;10.95;7.18;;;15.90;99.90;;;;;;5089625;28;20032;-68
2022/07/18 01:50:32;;;;;;;12.82;6.43;;;15.80;99.90;;;;;;5090113;28;20389;-68
2022/07/18 01:52:58;;;;;;;10.88;6.25;;;15.80;99.90;;;;;;5089602;28;20047;-68
2022/07/18 01:55:23;;;;;;;10.30;6.47;;;15.80;99.90;;;;;;5089858;28;20040;-67
2022/07/18 01:57:49;;;;;;;13.90;6.68;;;15.70;99.90;;;;;;5091538;28;20052;-67
2022/07/18 02:00:14;;;;;;;8.30;4.15;;;15.60;99.90;;;;;;5093403;28;20123;-67
2022/07/18 02:02:41;;;;;;;7.22;4.30;;;15.50;99.90;;;;;;5093694;28;20036;-68
2022/07/18 02:05:07;;;;;;;6.88;4.10;;;15.50;99.90;;;;;;5092358;28;20055;-67
2022/07/18 02:07:36;;;;;;;6.57;3.90;;;15.60;99.90;;;;;;5093788;28;20067;-67
2022/07/18 02:10:09;;;;;;;5.47;3.80;;;15.50;99.90;;;;;;5093552;28;20039;-68
2022/07/18 02:12:35;;;;;;;4.60;3.92;;;15.50;99.90;;;;;;5093222;28;20032;-67
2022/07/18 02:15:01;;;;;;;6.07;3.95;;;15.50;99.90;;;;;;5092437;28;20105;-68
2022/07/18 02:17:27;;;;;;;6.50;4.20;;;15.50;99.90;;;;;;5096221;28;20035;-67
2022/07/18 02:19:52;;;;;;;7.38;4.45;;;15.50;99.90;;;;;;5118655;28;20055;-66
2022/07/18 02:22:18;;;;;;;9.02;5.55;;;15.50;99.90;;;;;;5100586;28;20149;-68
2022/07/18 02:24:43;;;;;;;7.05;4.35;;;15.50;99.90;;;;;;5091939;28;20055;-68
2022/07/18 02:27:09;;;;;;;8.75;5.07;;;15.50;99.90;;;;;;5093346;28;20083;-68
2022/07/18 02:29:36;;;;;;;7.97;4.82;;;15.50;99.90;;;;;;5093398;28;20132;-68
2022/07/18 02:32:02;;;;;;;7.07;4.53;;;15.50;99.90;;;;;;5093357;28;20046;-68
2022/07/18 02:34:27;;;;;;;7.40;4.63;;;15.40;99.90;;;;;;5091477;28;20040;-68
2022/07/18 02:36:53;;;;;;;8.82;6.18;;;15.40;99.90;;;;;;5093232;28;20038;-67
2022/07/18 02:39:19;;;;;;;9.82;6.32;;;15.40;99.90;;;;;;5091743;28;20051;-68
2022/07/18 02:41:44;;;;;;;8.63;5.82;;;15.40;99.90;;;;;;5091423;28;20056;-68
2022/07/18 02:44:10;;;;;;;9.57;5.88;;;15.30;99.90;;;;;;5092863;28;20036;-68
2022/07/18 02:46:36;;;;;;;10.25;6.00;;;15.30;99.90;;;;;;5092970;28;20399;-68
2022/07/18 02:49:02;;;;;;;11.93;5.93;;;15.20;99.90;;;;;;5092948;28;20040;-68
2022/07/18 02:51:27;;;;;;;8.35;5.57;;;15.10;99.90;;;;;;5092946;28;20046;-68
2022/07/18 02:53:53;;;;;;;8.45;4.90;;;15.00;99.90;;;;;;5092761;28;20519;-68
2022/07/18 02:56:19;;;;;;;9.65;4.53;;;15.00;99.90;;;;;;5092661;28;20109;-68
2022/07/18 02:58:45;;;;;;;7.85;5.00;;;15.00;99.90;;;;;;5093086;28;20051;-68
2022/07/18 03:01:10;;;;;;;6.32;4.28;;;15.00;99.90;;;;;;5092394;28;20028;-68
2022/07/18 03:03:36;;;;;;;8.02;4.75;;;14.80;99.90;;;;;;5091085;28;20047;-68
2022/07/18 03:06:02;;;;;;;7.53;4.38;;;14.90;99.90;;;;;;5091118;28;20040;-68
2022/07/18 03:08:27;;;;;;;10.50;5.28;;;14.90;99.90;;;;;;5092316;28;20425;-68
2022/07/18 03:10:53;;;;;;;10.15;6.20;;;14.80;99.90;;;;;;5092491;28;20606;-68
2022/07/18 03:13:18;;;;;;;11.68;6.43;;;14.80;99.90;;;;;;5092027;28;20093;-68
2022/07/18 03:15:44;;;;;;;9.75;6.63;;;14.80;99.90;;;;;;5091002;28;20037;-67
2022/07/18 03:18:10;;;;;;;12.40;7.15;;;14.90;99.90;;;;;;5092303;28;20115;-67
2022/07/18 03:20:35;;;;;;;11.70;7.72;;;14.90;99.90;;;;;;5092251;28;20087;-68
2022/07/18 03:23:08;;;;;;;11.27;7.07;;;15.00;99.90;;;;;;5073902;28;20039;-68
2022/07/18 03:25:33;;;;;;;;;;;15.00;99.90;;;;;;5092641;28;20036;-68
2022/07/18 03:27:59;;;;;;;18.55;8.18;;;15.10;99.90;;;;;;5104144;28;20046;-67
2022/07/18 03:30:25;;;;;;;13.13;7.22;;;15.10;99.90;;;;;;5114536;28;20040;-66
2022/07/18 03:32:50;;;;;;;18.77;7.57;;;15.20;99.90;;;;;;5092817;28;20054;-67
2022/07/18 03:35:16;;;;;;;15.90;8.68;;;15.10;99.90;;;;;;5090844;28;20462;-68
2022/07/18 03:37:42;;;;;;;14.50;8.05;;;15.10;99.90;;;;;;5091253;28;20032;-68
2022/07/18 03:40:08;;;;;;;14.63;8.40;;;15.20;99.90;;;;;;5090187;28;20072;-68
2022/07/18 03:42:39;;;;;;;14.07;8.13;;;15.20;99.90;;;;;;5091420;28;20457;-68
2022/07/18 03:45:07;;;;;;;14.88;8.82;;;15.10;99.90;;;;;;5092022;28;20040;-67
2022/07/18 03:47:32;;;;;;;15.40;8.40;;;15.10;99.90;;;;;;5091909;28;20114;-68
2022/07/18 03:49:58;;;;;;;16.63;8.48;;;15.20;99.90;;;;;;5091676;28;20033;-68
2022/07/18 03:52:24;;;;;;;16.05;8.35;;;15.20;99.90;;;;;;5091424;28;20032;-68
2022/07/18 03:54:49;;;;;;;13.02;7.80;;;15.20;99.90;;;;;;5091560;28;20169;-68
2022/07/18 03:57:15;;;;;;;12.55;8.30;;;15.20;99.90;;;;;;5090276;28;20047;-68
2022/07/18 03:59:40;;;;;;;14.63;7.55;;;15.20;99.90;;;;;;5091525;28;20047;-68
2022/07/18 04:02:06;;;;;;;16.55;8.57;;;15.20;99.90;;;;;;5091402;28;20044;-68
2022/07/18 04:04:32;;;;;;;13.13;8.32;;;15.20;99.90;;;;;;5091117;28;20032;-68
2022/07/18 04:07:00;;;;;;;14.80;8.15;;;15.20;99.90;;;;;;5091456;28;20047;-67
2022/07/18 04:09:27;;;;;;;12.60;8.43;;;15.30;99.90;;;;;;5091403;28;20035;-68
2022/07/18 04:11:52;;;;;;;15.88;8.55;;;15.40;99.90;;;;;;5091412;28;20040;-68
2022/07/18 04:14:18;;;;;;;12.23;8.93;;;15.40;99.90;;;;;;5091308;28;20047;-68
2022/07/18 04:16:43;;;;;;;14.20;8.82;;;15.40;99.90;;;;;;5091390;28;20040;-68
2022/07/18 04:19:09;;;;;;;16.35;9.25;;;15.40;99.90;;;;;;5089854;28;20101;-68
2022/07/18 04:21:35;;;;;;;13.75;8.20;;;15.40;99.90;;;;;;5090912;28;20051;-68
2022/07/18 04:24:00;;;;;;;15.02;9.07;;;15.40;99.90;;;;;;5090811;28;20043;-68
2022/07/18 04:26:26;;;;;;;17.38;8.48;;;15.50;99.90;;;;;;5089828;28;20036;-67
2022/07/18 04:28:52;;;;;;;19.27;8.88;;;15.60;99.90;;;;;;5091133;28;20032;-67
2022/07/18 04:31:17;;;;;;;18.45;8.32;;;15.70;99.90;;;;;;5091091;28;20036;-68
2022/07/18 04:33:43;;;;;;;13.50;8.15;;;15.70;99.90;;;;;;5091907;28;20562;-67
2022/07/18 04:36:08;;;;;;;13.75;8.68;;;15.70;99.90;;;;;;5115376;28;20039;-66
2022/07/18 04:38:37;;;;;;;15.32;7.72;;;15.70;99.90;;;;;;5102613;28;20059;-68
2022/07/18 04:41:03;;;;;;;12.38;8.05;;;15.60;99.90;;;;;;5090955;28;20131;-68
2022/07/18 04:43:29;;;;;;;12.50;8.00;;;15.60;99.90;;;;;;5090925;28;20044;-68
2022/07/18 04:45:55;;;;;;;14.98;8.05;;;15.60;99.90;;;;;;5090807;28;20177;-68
2022/07/18 04:48:20;;;;;;;12.63;8.43;;;15.60;99.90;;;;;;5090651;28;20068;-68
2022/07/18 04:50:46;;;;;;;15.50;8.80;;;15.70;99.90;;;;;;5089368;28;20548;-68
2022/07/18 04:53:12;;;;;;;12.93;8.15;;;15.70;99.90;;;;;;5090083;28;20074;-68
2022/07/18 04:55:37;;;;;;;14.40;8.45;;;15.80;99.90;;;;;;5090461;28;20043;-68
2022/07/18 04:58:03;;;;;;;11.90;7.63;;;15.90;99.90;;;;;;5090583;28;20036;-68
2022/07/18 05:00:29;;;;;;;14.35;7.22;;;15.90;99.90;;;;;;5089403;28;20127;-67
2022/07/18 05:02:56;;;;;;;13.38;7.30;;;15.90;99.90;;;;;;5090170;28;20441;-67
2022/07/18 05:05:23;;;;;;;10.75;7.35;;;16.00;99.90;;;;;;5090347;28;20040;-68
2022/07/18 05:07:50;;;;;;;11.65;7.75;;;16.00;99.90;;;;;;5088980;28;20114;-68
2022/07/18 05:10:17;;;;;;;13.02;7.53;;;16.10;99.90;;;;;;5089331;28;20430;-68
2022/07/18 05:12:44;;;;;;;11.55;6.90;;;16.20;99.90;;;;;;5090551;28;20086;-68
2022/07/18 05:15:12;;;;;;;11.02;6.72;;;16.30;99.90;;;;;;5089040;28;20405;-68
2022/07/18 05:17:39;;;;;;;12.68;7.30;;;16.30;99.90;;;;;;5088677;28;20039;-68
2022/07/18 05:20:07;;;;;;;15.55;7.95;;;16.40;99.90;;;;;;5088882;28;20066;-67
2022/07/18 05:22:34;;;;;;;15.57;7.60;;;16.40;99.90;;;;;;5089779;28;20583;-68
2022/07/18 05:25:00;;;;;;;19.13;7.53;;;16.40;99.90;;;;;;5090062;28;20036;-68
2022/07/18 05:27:26;;;;;;;17.75;7.10;;;16.40;99.90;;;;;;5090289;28;20044;-67
2022/07/18 05:29:51;;;;;;;11.00;7.32;;;16.40;99.90;;;;;;5090189;28;20039;-67
2022/07/18 05:32:17;;;;;;;14.75;7.93;;;16.50;99.90;;;;;;5091803;28;20036;-66
2022/07/18 05:34:42;;;;;;;16.02;6.88;;;16.60;99.90;;;;;;5077714;28;20146;-67
2022/07/18 05:37:08;;;;;;;12.20;6.80;;;16.60;99.90;;;;;;5094586;28;20043;-67
2022/07/18 05:39:35;;;;;;;16.85;6.82;;;16.60;99.90;;;;;;5094454;28;20043;-67
2022/07/18 05:42:01;;;;;;;10.07;6.35;;;16.60;99.90;;;;;;5095851;28;20044;-66
2022/07/18 05:44:27;;;;;;;10.10;6.40;;;16.70;99.90;;;;;;5118079;28;20032;-66
2022/07/18 05:46:52;;;;;;;10.13;6.45;;;16.70;99.90;;;;;;5105865;28;20406;-68
2022/07/18 05:49:18;;;;;;;10.07;6.22;;;16.70;99.90;;;;;;5092778;28;20040;-67
2022/07/18 05:51:44;;;;;;;11.55;6.03;;;16.80;99.90;;;;;;5094007;28;20044;-67
2022/07/18 05:54:09;;;;;;;12.38;6.70;;;16.90;99.90;;;;;;5093636;28;20047;-66
2022/07/18 05:56:35;;;;;;;11.68;6.55;;;17.10;99.90;;;;;;5093820;28;20036;-66
2022/07/18 05:59:00;;;;;;;14.77;6.38;;;17.20;99.90;;;;;;5092655;28;20047;-67
2022/07/18 06:01:26;;;;;;;13.20;6.22;;;17.40;99.90;;;;;;5093348;28;20066;-67
2022/07/18 06:03:51;;;;;;;11.63;6.53;;;17.60;99.90;;;;;;5093216;28;20149;-67
2022/07/18 06:06:20;;;;;;;10.82;5.72;;;17.60;99.90;;;;;;5093400;28;20068;-67
2022/07/18 06:08:45;;;;;;;9.07;6.03;;;17.60;99.90;;;;;;5093704;28;20391;-67
2022/07/18 06:11:11;;;;;;;12.75;6.03;;;17.60;99.90;;;;;;5093580;28;20036;-67
2022/07/18 06:13:41;;;;;;;8.20;5.05;;;17.60;99.90;;;;;;5093098;28;20047;-67
2022/07/18 06:16:07;;;;;;;10.48;5.72;;;17.70;99.90;;;;;;5091976;28;20380;-67
2022/07/18 06:18:36;;;;;;;9.95;5.70;;;17.70;99.90;;;;;;5093201;28;20076;-66
2022/07/18 06:21:03;;;;;;;10.77;5.43;;;17.70;99.90;;;;;;5073675;28;20407;-67
2022/07/18 06:23:29;;;;;;;9.50;5.72;;;17.70;99.90;;;;;;5072418;28;20032;-67
2022/07/18 06:25:55;;;;;;;9.50;5.28;;;17.70;99.90;;;;;;5071742;28;20055;-67
2022/07/18 06:28:21;;;;;;;10.38;5.68;;;17.80;99.90;;;;;;5072841;28;20104;-67
2022/07/18 06:30:47;;;;;;;11.52;6.03;;;17.80;99.90;;;;;;5071347;28;20113;-67
2022/07/18 06:33:13;;;;;;;9.68;5.30;;;17.90;99.90;;;;;;5070996;28;20040;-66
2022/07/18 06:35:39;;;;;;;14.35;5.53;;;17.90;99.90;;;;;;5072578;28;20092;-67
2022/07/18 06:38:05;;;;;;;8.88;5.13;;;18.00;99.90;;;;;;5071169;28;20053;-66
2022/07/18 06:40:31;;;;;;;8.45;5.35;;;18.00;99.90;;;;;;5071233;28;20075;-66
2022/07/18 06:42:56;;;;;;;8.38;5.70;;;18.10;99.90;;;;;;5071882;28;20408;-67
2022/07/18 06:45:22;;;;;;;11.80;5.50;;;18.20;99.90;;;;;;5072502;28;20591;-67
2022/07/18 06:47:48;;;;;;;10.75;5.25;;;18.30;99.90;;;;;;5071032;28;20040;-67
2022/07/18 06:50:14;;;;;;;11.90;5.60;;;18.40;99.90;;;;;;5073718;28;20522;-67
2022/07/18 06:52:42;;;;;;;10.32;5.07;;;18.50;99.90;;;;;;5116968;27;20088;-70
2022/07/18 06:55:09;;;;;;;8.73;4.95;;;18.50;99.90;;;;;;5119132;28;20043;-71
2022/07/18 06:57:35;;;;;;;12.15;5.03;;;18.60;99.90;;;;;;5114057;28;20141;-70
2022/07/18 07:00:02;;;;;;;11.65;4.55;;;18.60;99.90;;;;;;5116182;28;20163;-70
2022/07/18 07:02:27;;;;;;;10.48;4.90;;;18.80;99.90;;;;;;5112791;28;20050;-70
2022/07/18 07:04:53;;;;;;;7.05;4.30;;;18.90;99.90;;;;;;5112758;28;20031;-70
2022/07/18 07:07:18;;;;;;;12.15;4.95;;;19.00;99.90;;;;;;5111598;28;20130;-70
2022/07/18 07:09:44;;;;;;;8.73;4.22;;;19.20;99.90;;;;;;5112793;28;20034;-70
2022/07/18 07:12:10;;;;;;;8.15;4.13;;;19.40;99.90;;;;;;5112801;28;20039;-70
2022/07/18 07:14:36;;;;;;;11.50;4.60;;;19.70;99.90;;;;;;5111460;28;20085;-70
2022/07/18 07:17:02;;;;;;;14.93;4.03;;;19.80;99.90;;;;;;5111784;28;20090;-70
2022/07/18 07:19:28;;;;;;;8.93;3.75;;;20.00;99.90;;;;;;5112760;28;20059;-70
2022/07/18 07:21:53;;;;;;;6.13;3.78;;;20.10;99.90;;;;;;5111669;28;20044;-70
2022/07/18 07:24:19;;;;;;;6.53;3.22;;;20.40;99.90;;;;;;5113401;28;20415;-70
2022/07/18 07:26:44;;;;;;;8.88;3.58;;;20.50;99.90;;;;;;5113508;28;20508;-70
2022/07/18 07:29:10;;;;;;;10.30;3.28;;;20.60;99.90;;;;;;5111861;28;20077;-70
2022/07/18 07:31:36;;;;;;;5.32;3.30;;;20.70;99.90;;;;;;5111908;28;20040;-70
2022/07/18 07:34:02;;;;;;;8.75;3.40;;;20.90;99.90;;;;;;5112156;28;20043;-70
2022/07/18 07:36:27;;;;;;;8.02;3.20;;;21.00;99.90;;;;;;5111110;28;20404;-70
2022/07/18 07:38:53;;;;;;;3.90;2.30;;;21.10;99.90;;;;;;5111173;28;20124;-70
2022/07/18 07:41:18;;;;;;;7.10;3.03;;;21.40;99.90;;;;;;5113150;28;20035;-70
2022/07/18 07:43:44;;;;;;;6.55;2.40;;;21.30;99.90;;;;;;5112222;28;20086;-70
2022/07/18 07:46:11;;;;;;;8.07;2.90;;;21.50;99.90;;;;;;5113463;28;20036;-70
2022/07/18 07:48:37;;;;;;;7.53;2.80;;;21.60;99.90;;;;;;5111485;28;20050;-70
2022/07/18 07:51:03;;;;;;;8.52;2.60;;;21.60;99.90;;;;;;5111533;28;20058;-70
2022/07/18 07:53:29;;;;;;;4.93;2.83;;;21.70;99.90;;;;;;5110771;28;20410;-70
2022/07/18 07:55:54;;;;;;;4.85;2.40;;;21.90;99.90;;;;;;5112461;28;20044;-72
2022/07/18 07:58:20;;;;;;;7.65;2.45;;;21.90;99.90;;;;;;5113026;28;20376;-70
2022/07/18 08:00:46;;;;;;;6.43;2.22;;;22.00;99.90;;;;;;5138251;28;20054;-70
2022/07/18 08:03:12;;;;;;;4.72;1.92;;;22.10;99.90;;;;;;5126914;28;20043;-70
2022/07/18 08:05:43;;;;;;;8.10;2.00;;;22.30;99.90;;;;;;5113556;28;20114;-70
2022/07/18 08:08:09;;;;;;;5.90;2.00;;;22.50;99.90;;;;;;5111888;28;20055;-70
2022/07/18 08:10:35;;;;;;;8.40;1.98;;;22.60;99.90;;;;;;5111706;28;20057;-70
2022/07/18 08:13:01;;;;;;;6.38;2.10;;;22.60;99.90;;;;;;5112581;28;20071;-70
2022/07/18 08:15:26;;;;;;;5.93;1.50;;;22.50;99.90;;;;;;5111524;28;20102;-70
2022/07/18 08:17:52;;;;;;;8.57;1.50;;;22.60;99.90;;;;;;5111887;28;20150;-69
2022/07/18 08:20:18;;;;;;;6.20;1.92;;;22.60;99.90;;;;;;5112186;28;20043;-71
2022/07/18 08:23:05;;;;;;;4.28;1.83;;;22.70;99.90;;;;;;5110939;28;20134;-73
2022/07/18 08:25:34;;;;;;;6.30;1.70;;;22.80;99.90;;;;;;5111554;28;20399;-71
2022/07/18 08:28:00;;;;;;;4.97;1.55;;;23.00;99.90;;;;;;5112187;28;20044;-72
2022/07/18 08:30:26;;;;;;;7.63;2.15;;;23.20;99.90;;;;;;5110964;28;20408;-71
2022/07/18 08:32:52;;;;;;;3.78;1.27;;;23.40;99.90;;;;;;5110408;28;20028;-71
2022/07/18 08:35:18;;;;;;;3.58;1.80;;;23.50;99.90;;;;;;5110557;28;20084;-71
2022/07/18 08:37:44;;;;;;;5.03;1.70;;;23.70;99.90;;;;;;5112196;28;20416;-72
2022/07/18 08:40:10;;;;;;;10.70;3.17;;;23.80;99.90;;;;;;5093762;28;20059;-71
2022/07/18 08:42:36;;;;;;;7.25;1.67;;;23.90;99.90;;;;;;5093054;28;20039;-73
2022/07/18 08:45:03;;;;;;;5.13;1.60;;;23.90;99.90;;;;;;5110472;28;20039;-72
2022/07/18 08:47:30;;;;;;;8.02;1.67;;;23.90;99.80;;;;;;5111947;28;20064;-72
2022/07/18 08:49:56;;;;;;;5.82;1.88;;;24.00;99.90;;;;;;5110554;28;20088;-72
2022/07/18 08:52:22;;;;;;;6.07;1.90;;;24.00;99.90;;;;;;5111658;28;20078;-72
2022/07/18 08:54:50;;;;;;;6.20;1.58;;;24.20;99.90;;;;;;5112139;28;20106;-71
2022/07/18 08:57:17;;;;;;;4.82;1.50;;;24.30;99.90;;;;;;5112118;28;20471;-72
2022/07/18 08:59:43;;;;;;;7.53;2.00;;;24.50;99.20;;;;;;5111950;28;20044;-71
2022/07/18 09:02:09;;;;;;;2.95;1.67;;;24.50;99.10;;;;;;5111689;28;20039;-72
2022/07/18 09:04:40;;;;;;;5.53;1.88;;;24.70;98.80;;;;;;5110173;28;20046;-72
2022/07/18 09:07:08;;;;;;;5.80;1.40;;;24.80;97.90;;;;;;5117462;28;20081;-71
2022/07/18 09:09:35;;;;;;;4.75;1.27;;;24.90;98.10;;;;;;5136757;28;20031;-71
2022/07/18 09:12:06;;;;;;;8.20;1.75;;;25.00;97.80;;;;;;5116392;28;20472;-73
2022/07/18 09:14:33;;;;;;;3.20;1.75;;;25.00;97.20;;;;;;5110429;28;20130;-72
2022/07/18 09:17:09;;;;;;;4.82;1.58;;;25.00;97.10;;;;;;5111378;28;20253;-72
2022/07/18 09:19:36;;;;;;;4.10;1.55;;;25.20;95.80;;;;;;5110300;28;20134;-71
2022/07/18 09:22:13;;;;;;;5.07;1.80;;;25.20;96.20;;;;;;5110019;28;20031;-70
2022/07/18 09:25:11;;;;;;;6.65;1.92;;;25.20;95.00;;;;;;5111477;28;20051;-70
2022/07/18 09:27:48;;;;;;;5.45;1.63;;;25.20;94.00;;;;;;5112254;28;20111;-70
2022/07/18 09:30:22;;;;;;;7.07;1.88;;;25.20;95.20;;;;;;5114338;28;20036;-71
2022/07/18 09:32:53;;;;;;;3.90;1.40;;;25.30;94.40;;;;;;5113171;28;20043;-70
2022/07/18 09:35:26;;;;;;;7.57;1.75;;;25.30;95.00;;;;;;5111720;28;20047;-70
2022/07/18 09:38:05;;;;;;;5.72;1.75;;;25.50;94.80;;;;;;5110414;28;20031;-70
2022/07/18 09:40:39;;;;;;;7.88;1.70;;;25.50;94.80;;;;;;5109861;28;20128;-70
2022/07/18 09:43:07;;;;;;;6.50;1.98;;;25.60;93.90;;;;;;5110109;28;20047;-71
2022/07/18 09:45:39;;;;;;;7.00;1.70;;;25.80;94.50;;;;;;5111336;28;20032;-71
2022/07/18 09:48:06;;;;;;;5.57;1.70;;;25.70;94.30;;;;;;5092884;28;20104;-70
2022/07/18 09:50:40;;;;;;;5.60;1.63;;;25.80;94.20;;;;;;5109917;28;20035;-71
2022/07/18 09:53:19;;;;;;;8.38;1.90;;;25.70;94.20;;;;;;5109542;28;20126;-71
2022/07/18 09:55:51;;;;;;;7.35;2.00;;;25.80;93.60;;;;;;5110075;28;20077;-71
2022/07/18 09:58:18;;;;;;;;;;;25.80;93.90;;;;;;5110579;28;20387;-71
2022/07/18 10:00:44;;;;;;;6.28;1.95;;;25.90;92.80;;;;;;5111133;28;19924;-69
2022/07/18 10:03:10;;;;;;;4.57;1.40;;;25.90;94.00;;;;;;5111324;28;20047;-71
2022/07/18 10:05:38;;;;;;;4.03;1.48;;;26.00;94.00;;;;;;5111542;28;20564;-72
2022/07/18 10:08:08;;;;;;;5.97;1.65;;;26.10;92.90;;;;;;5111215;28;20066;-71
2022/07/18 10:10:34;;;;;;;3.30;1.45;;;26.10;92.90;;;;;;5110205;28;20043;-71
2022/07/18 10:13:03;;;;;;;6.38;1.85;;;26.20;93.40;;;;;;5109728;28;20131;-71
2022/07/18 10:15:32;;;;;;;5.57;1.50;;;26.20;93.10;;;;;;5118450;28;20083;-70
2022/07/18 10:17:58;;;;;;;7.22;1.63;;;26.10;92.50;;;;;;5138534;28;20052;-72
2022/07/18 10:20:27;;;;;;;6.00;1.80;;;26.20;93.00;;;;;;5121180;28;20078;-70
2022/07/18 10:22:57;;;;;;;5.75;1.48;;;26.30;91.60;;;;;;5114656;28;20054;-71
2022/07/18 10:25:23;;;;;;;5.55;1.83;;;26.30;92.40;;;;;;5114820;28;20084;-71
2022/07/18 10:28:19;;;;;;;7.57;1.80;;;26.40;92.80;;;;;;5114564;28;20078;-70
2022/07/18 10:30:46;;;;;;;7.80;1.60;;;26.40;91.70;;;;;;5114393;28;20039;-70
2022/07/18 10:33:38;;;;;;;7.25;1.90;;;26.30;91.70;;;;;;5114396;28;20040;-70
2022/07/18 10:36:12;;;;;;;5.85;1.95;;;26.40;91.50;;;;;;5113329;27;20035;-71
2022/07/18 10:38:58;;;;;;;4.43;1.65;;;26.30;91.30;;;;;;5114378;28;20042;-71
2022/07/18 10:41:24;;;;;;;7.80;1.92;;;26.30;91.40;;;;;;5114113;28;20031;-70
2022/07/18 10:43:49;;;;;;;7.50;2.10;;;26.40;91.20;;;;;;5114028;28;20039;-70
2022/07/18 10:46:15;;;;;;;5.38;1.40;;;26.50;91.50;;;;;;5113538;28;20040;-71
2022/07/18 10:48:40;;;;;;;8.10;1.65;;;26.50;91.30;;;;;;5114883;28;20081;-71
2022/07/18 10:51:08;;;;;;;5.57;2.00;;;26.50;91.50;;;;;;5115524;28;20396;-70
2022/07/18 10:54:01;;;;;;;7.53;2.00;;;26.70;88.90;;;;;;5113070;28;20519;-71
2022/07/18 10:56:36;;;;;;;4.45;1.77;;;26.80;90.00;;;;;;5114137;28;20427;-72
2022/07/18 10:59:16;;;;;;;5.20;1.65;;;26.90;90.10;;;;;;5114146;28;20039;-71
2022/07/18 11:02:08;;;;;;;3.67;1.67;;;27.00;87.90;;;;;;5095497;28;20519;-72
2022/07/18 11:04:35;;;;;;;;;;;26.90;84.10;;;;;;5109187;28;20051;-71
2022/07/18 11:07:15;;;;;;;3.78;1.90;;;26.90;85.80;;;;;;5112620;28;19939;-71
2022/07/18 11:09:44;;;;;;;9.52;2.58;;;26.90;88.70;;;;;;5111695;28;20039;-71
2022/07/18 11:12:17;;;;;;;6.88;2.35;;;26.90;86.80;;;;;;5111500;28;20051;-72
2022/07/18 11:15:14;;;;;;;4.10;1.80;;;27.00;85.30;;;;;;5111737;28;20043;-70
2022/07/18 11:18:00;;;;;;;9.02;2.50;;;27.00;85.50;;;;;;5112597;28;20047;-71
2022/07/18 11:20:33;;;;;;;7.28;2.20;;;27.20;81.30;;;;;;5113291;27;20100;-70
2022/07/18 11:22:58;;;;;;;9.82;2.13;;;27.40;82.60;;;;;;5113465;28;20050;-70
2022/07/18 11:25:27;;;;;;;5.35;2.15;;;27.40;84.80;;;;;;5137948;27;20040;-72
2022/07/18 11:27:53;;;;;;;5.53;1.83;;;27.40;81.50;;;;;;5127501;28;20046;-72
2022/07/18 11:30:20;;;;;;;4.32;1.92;;;27.40;83.10;;;;;;5112419;28;20088;-72
2022/07/18 11:32:46;;;;;;;6.50;2.65;;;27.40;83.10;;;;;;5111251;28;20040;-73
2022/07/18 11:35:20;;;;;;;5.93;2.10;;;27.30;83.90;;;;;;5111795;28;20046;-71
2022/07/18 11:37:50;;;;;;;6.15;2.28;;;27.20;83.30;;;;;;5113388;27;20522;-71
2022/07/18 11:40:16;;;;;;;4.57;1.85;;;27.20;83.30;;;;;;5110453;28;20047;-71
2022/07/18 11:42:42;;;;;;;5.60;2.10;;;27.30;82.90;;;;;;5110336;28;20143;-71
2022/07/18 11:45:12;;;;;;;9.60;2.60;;;27.30;83.10;;;;;;5112021;28;20043;-71
2022/07/18 11:47:52;;;;;;;8.15;2.20;;;27.30;83.00;;;;;;5113362;28;20043;-71
2022/07/18 11:50:33;;;;;;;11.18;2.60;;;27.40;81.50;;;;;;5113827;28;20036;-71
2022/07/18 11:52:59;;;;;;;4.63;1.90;;;27.30;83.60;;;;;;5113329;28;20099;-72
2022/07/18 11:55:38;;;;;;;7.38;2.35;;;27.30;83.00;;;;;;5113298;28;20032;-72
2022/07/18 11:58:08;;;;;;;6.93;2.05;;;27.40;79.20;;;;;;5113224;28;20035;-71
2022/07/18 12:00:33;;;;;;;10.93;2.92;;;27.30;82.00;;;;;;5113210;28;20074;-71
2022/07/18 12:03:17;;;;;;;6.95;2.10;;;27.40;79.20;;;;;;5111694;28;20081;-71
2022/07/18 12:05:52;;;;;;;4.38;2.20;;;27.20;80.10;;;;;;5112579;28;20047;-72
2022/07/18 12:08:34;;;;;;;4.70;2.15;;;27.20;79.70;;;;;;5095338;28;20035;-73
2022/07/18 12:11:04;;;;;;;6.10;2.22;;;27.20;80.50;;;;;;5111847;28;20395;-71
2022/07/18 12:13:46;;;;;;;6.95;2.15;;;27.30;81.90;;;;;;5112376;28;20039;-71
2022/07/18 12:16:27;;;;;;;7.25;1.92;;;27.30;80.40;;;;;;5113422;28;20560;-72
2022/07/18 12:19:08;;;;;;;5.15;1.70;;;27.30;80.00;;;;;;5112415;28;20070;-73
2022/07/18 12:21:55;;;;;;;8.77;2.30;;;27.30;81.30;;;;;;5112091;28;20044;-72
2022/07/18 12:24:32;;;;;;;7.10;2.45;;;27.40;80.50;;;;;;5110676;28;20446;-73
2022/07/18 12:27:16;;;;;;;9.65;2.20;;;27.30;79.00;;;;;;5110908;28;20040;-70
2022/07/18 12:30:14;;;;;;;5.22;2.45;;;27.30;78.90;;;;;;5112432;28;20036;-72
2022/07/18 12:32:42;;;;;;;7.13;2.38;;;27.30;78.80;;;;;;5125202;28;20057;-71
2022/07/18 12:35:26;;;;;;;3.58;2.25;;;27.40;80.00;;;;;;5138167;28;20020;-73
2022/07/18 12:38:08;;;;;;;7.30;2.70;;;27.40;78.60;;;;;;5112553;28;20075;-71
2022/07/18 12:40:43;;;;;;;2.72;1.83;;;27.50;78.80;;;;;;5111186;28;20040;-71
2022/07/18 12:43:21;;;;;;;5.30;2.47;;;27.60;78.90;;;;;;5110191;28;20070;-72
2022/07/18 12:45:47;;;;;;;9.15;2.60;;;27.60;80.30;;;;;;5082993;28;20027;-71
2022/07/18 12:48:13;;;;;;;6.25;2.40;;;27.60;79.90;;;;;;5110655;28;20043;-72
2022/07/18 12:50:40;;;;;;;5.10;2.28;;;27.60;79.70;;;;;;5112050;28;20036;-71